• Join FlightAware (Why Join?)
  • Login
  • US Flag 
04:41PM EDT


 

Airport Tracker/Info


-or-


 

Live Flight TrackerFlight Track Log ✈ EJA922 ✈ 30-Oct-2013 ✈ KBOS - KHPN

Flight Track Log - Related Links

Times and Time Zones

All times are in EDT time to prevent confusion due to time zone crossing. See the EJA922 flight status page for this flight to view local times or setup timezone preferences in your user account.

Time Position Orientation Groundspeed Altitude Reporting Facility
EDT Latitude Longitude Course Direction KTS MPH feet Rate Location/Type
09:07AM 42.3500 -71.0167 132° Southeast 177 204 1,000  Level KA90
09:08AM 42.3167 -70.9667 132° Southeast 262 302 4,700 3,600 Climbing KA90
09:09AM 42.3167 -70.8667 90° East 297 342 8,300 2,640 Climbing KA90
09:09AM 42.3319 -70.8039 72° East 297 342 9,600 1,860 Climbing Boston Center
09:10AM 42.2703 -70.7211 135° Southeast 335 386 11,500 1,140 Climbing Boston Center
09:11AM 42.1917 -70.7664 203° Southwest 324 373 12,000 240 Climbing Boston Center
09:12AM 42.1650 -70.8944 254° West 320 368 12,100  Climbing Boston Center
09:13AM 42.1494 -71.0275 261° West 336 387 12,100  Level Boston Center
09:14AM 42.1339 -71.1564 261° West 349 402 12,100  Level Boston Center
09:15AM 42.1181 -71.2883 261° West 358 412 12,100  Level Boston Center
09:16AM 42.1025 -71.4211 261° West 361 415 12,100  Level Boston Center
09:17AM 42.0856 -71.5619 261° West 356 410 12,100  Level Boston Center
09:19AM 42.0694 -71.6900 260° West 350 403 12,100  Level Boston Center
09:20AM 42.0528 -71.8219 260° West 359 413 12,100  Level Boston Center
09:21AM 42.0358 -71.9583 261° West 369 425 12,100  Level Boston Center
09:22AM 42.0175 -72.1019 260° West 363 418 12,100  Level Boston Center
09:23AM 42.0006 -72.2333 260° West 357 411 12,100  Level Boston Center
09:24AM 41.9839 -72.3647 260° West 358 412 12,100  Level Boston Center
09:25AM 41.9669 -72.4942 260° West 352 405 12,100  Level Boston Center
09:26AM 41.9486 -72.6350 260° West 356 410 12,100  Level Boston Center
09:27AM 41.9108 -72.7628 248° West 360 414 12,100  Level Boston Center
09:28AM 41.8617 -72.8822 241° Southwest 365 420 12,100  Level Boston Center
09:29AM 41.8122 -73.0008 241° Southwest 365 420 12,100  Level Boston Center
09:30AM 41.7625 -73.1208 241° Southwest 367 422 12,100  Level Boston Center
09:31AM 41.7089 -73.2472 240° Southwest 365 420 12,100 -60 Level Boston Center
09:32AM 41.6597 -73.3628 240° Southwest 367 422 12,000 -60 Descending Boston Center
09:33AM 41.6092 -73.4783 240° Southwest 361 415 12,000 -660 Level Boston Center
09:34AM 41.5683 -73.5744 240° Southwest 276 318 10,700 -1,260 Descending Boston Center
09:35AM 41.5339 -73.6550 240° Southwest 250 288 9,400 -1,380 Descending Boston Center
09:35AM 41.5167 -73.7000 243° Southwest 249 287 8,600 -1,440 Descending New York TRACON
09:36AM 41.4833 -73.7833 242° Southwest 249 287 7,300 -1,320 Descending New York TRACON
09:37AM 41.4500 -73.8333 228° Southwest 251 289 6,100 -1,380 Descending New York TRACON
09:38AM 41.3667 -73.8333 180° South 280 322 4,700 -1,500 Descending New York TRACON
09:39AM 41.3167 -73.7667 135° Southeast 271 312 3,200 -900 Descending New York TRACON
09:40AM 41.2500 -73.7167 151° Southeast 267 307 3,000 -120 Descending New York TRACON
09:41AM 41.2000 -73.6667 143° Southeast 265 305 3,000  Level New York TRACON
09:42AM 41.1333 -73.6167 151° Southeast 260 299 3,000 -60 Level New York TRACON
09:43AM 41.0667 -73.5667 151° Southeast 244 281 2,900 -420 Descending New York TRACON
09:44AM 41.0167 -73.5500 166° South 211 243 2,200 -480 Descending New York TRACON
09:45AM 40.9667 -73.5667 194° South 186 214 2,000 -120 Descending New York TRACON
09:46AM 40.9667 -73.6333 270° West 180 207 2,000 -120 Level New York TRACON
09:47AM 41.0000 -73.6667 323° Northwest 163 188 1,800 -600 Descending New York TRACON
09:48AM 41.0333 -73.6833 339° North 142 163 900 -900 Descending New York TRACON